createdAt,value
2019-05-06T00:00:34.416Z,6.50
2019-05-06T00:03:05.056Z,5.30
2019-05-06T00:05:34.382Z,6.17
2019-05-06T00:08:03.945Z,5.37
2019-05-06T00:10:34.115Z,5.20
2019-05-06T00:13:04.604Z,5.40
2019-05-06T00:15:34.370Z,5.37
2019-05-06T00:18:04.496Z,5.97
2019-05-06T00:20:34.874Z,5.07
2019-05-06T00:23:10.090Z,5.40
2019-05-06T00:25:58.043Z,5.87
2019-05-06T00:28:33.954Z,5.60
2019-05-06T00:31:12.687Z,6.30
2019-05-06T00:33:35.824Z,7.20
2019-05-06T00:36:04.907Z,6.03
2019-05-06T00:38:34.226Z,5.47
2019-05-06T00:41:06.816Z,6.07
2019-05-06T00:43:35.848Z,6.03
2019-05-06T00:46:04.934Z,5.60
2019-05-06T00:48:34.327Z,6.20
2019-05-06T00:51:04.584Z,6.23
2019-05-06T00:53:35.556Z,5.50
2019-05-06T00:56:04.668Z,5.93
2019-05-06T00:58:34.823Z,5.67
2019-05-06T01:01:04.629Z,5.80
2019-05-06T01:03:34.724Z,5.93
2019-05-06T01:06:04.111Z,5.93
2019-05-06T01:08:34.847Z,6.40
2019-05-06T01:11:04.280Z,5.83
2019-05-06T01:13:38.978Z,6.63
2019-05-06T01:16:09.055Z,6.30
2019-05-06T01:18:38.148Z,5.90
2019-05-06T01:21:10.333Z,7.30
2019-05-06T01:23:44.359Z,6.50
2019-05-06T01:26:15.049Z,6.40
2019-05-06T01:28:44.456Z,5.63
2019-05-06T01:31:14.027Z,6.80
2019-05-06T01:33:45.307Z,6.77
2019-05-06T01:36:14.349Z,6.60
2019-05-06T01:39:05.267Z,6.80
2019-05-06T01:41:49.931Z,6.27
2019-05-06T01:44:19.132Z,5.90
2019-05-06T01:46:48.160Z,6.70
2019-05-06T01:49:17.248Z,7.40
2019-05-06T01:51:46.308Z,6.60
2019-05-06T01:54:15.409Z,6.13
2019-05-06T01:56:44.650Z,6.47
2019-05-06T01:59:14.125Z,6.90
2019-05-06T02:01:54.929Z,6.43
2019-05-06T02:04:14.212Z,6.60
2019-05-06T02:06:43.791Z,7.33
2019-05-06T02:09:16.127Z,6.20
2019-05-06T02:11:47.897Z,7.37
2019-05-06T02:14:16.238Z,6.27
2019-05-06T02:16:45.327Z,5.93
2019-05-06T02:19:14.886Z,6.40
2019-05-06T02:21:58.354Z,6.27
2019-05-06T02:24:36.615Z,6.67
2019-05-06T02:27:06.361Z,6.27
2019-05-06T02:29:39.326Z,6.77
2019-05-06T02:32:31.592Z,6.50
2019-05-06T02:35:14.960Z,6.83
2019-05-06T02:37:46.407Z,6.93
2019-05-06T02:40:25.631Z,6.83
2019-05-06T02:42:55.290Z,6.87
2019-05-06T02:45:24.654Z,7.83
2019-05-06T02:48:22.933Z,6.83
2019-05-06T02:51:04.699Z,7.10
2019-05-06T02:53:33.917Z,7.27
2019-05-06T02:56:03.993Z,7.67
2019-05-06T02:58:33.591Z,7.53
2019-05-06T03:01:03.587Z,8.07
2019-05-06T03:03:33.738Z,7.90
2019-05-06T03:06:03.861Z,8.20
2019-05-06T03:08:33.599Z,7.93
2019-05-06T03:11:03.973Z,9.73
2019-05-06T03:13:34.160Z,8.60
2019-05-06T03:16:06.005Z,9.30
2019-05-06T03:18:34.267Z,8.97
2019-05-06T03:21:24.461Z,8.80
2019-05-06T03:23:58.029Z,8.70
2019-05-06T03:26:27.226Z,9.73
2019-05-06T03:28:56.319Z,9.37
2019-05-06T03:31:26.502Z,9.70
2019-05-06T03:34:21.594Z,9.60
2019-05-06T03:36:32.973Z,8.97
2019-05-06T03:38:57.469Z,9.80
2019-05-06T03:41:26.892Z,11.23
2019-05-06T03:43:56.091Z,10.57
2019-05-06T03:46:36.258Z,10.30
2019-05-06T03:49:07.501Z,9.70
2019-05-06T03:51:36.570Z,10.63
2019-05-06T03:54:05.636Z,12.53
2019-05-06T03:56:34.757Z,11.63
2019-05-06T03:59:03.868Z,10.63
2019-05-06T04:01:33.746Z,10.63
2019-05-06T04:04:03.828Z,11.17
2019-05-06T04:06:33.509Z,10.63
2019-05-06T04:09:03.679Z,11.07
2019-05-06T04:11:35.868Z,11.43
2019-05-06T04:14:03.739Z,10.50
2019-05-06T04:16:43.998Z,10.70
2019-05-06T04:19:23.704Z,11.97
2019-05-06T04:22:08.507Z,11.00
2019-05-06T04:24:46.990Z,12.00
2019-05-06T04:28:03.048Z,11.07
2019-05-06T04:30:33.382Z,11.97
2019-05-06T04:33:03.288Z,10.97
2019-05-06T04:35:33.762Z,12.00
2019-05-06T04:38:03.424Z,12.30
2019-05-06T04:40:33.099Z,11.80
2019-05-06T04:43:03.595Z,10.73
2019-05-06T04:45:33.751Z,11.87
2019-05-06T04:48:03.710Z,11.57
2019-05-06T04:50:33.259Z,12.33
2019-05-06T04:53:06.053Z,11.63
2019-05-06T04:55:35.178Z,11.57
2019-05-06T04:58:05.071Z,11.23
2019-05-06T05:00:34.399Z,12.57
2019-05-06T05:03:03.453Z,12.07
2019-05-06T05:05:33.269Z,12.30
2019-05-06T05:08:02.674Z,11.60
2019-05-06T05:10:38.739Z,12.03
2019-05-06T05:13:18.716Z,10.97
2019-05-06T05:16:02.255Z,10.57
2019-05-06T05:18:39.256Z,10.00
2019-05-06T05:21:08.343Z,10.50
2019-05-06T05:23:37.472Z,10.70
2019-05-06T05:26:06.570Z,10.73
2019-05-06T05:28:35.873Z,10.17
2019-05-06T05:31:04.964Z,10.93
2019-05-06T05:33:34.033Z,10.00
2019-05-06T05:36:03.151Z,10.67
2019-05-06T05:38:32.293Z,9.83
2019-05-06T05:41:03.090Z,10.20
2019-05-06T05:43:57.266Z,9.90
2019-05-06T05:46:26.327Z,10.27
2019-05-06T05:49:22.018Z,9.50
2019-05-06T05:51:51.951Z,9.43
2019-05-06T05:54:23.109Z,9.67
2019-05-06T05:56:52.886Z,9.63
2019-05-06T05:59:23.118Z,9.17
2019-05-06T06:01:53.042Z,9.23
2019-05-06T06:04:22.900Z,9.30
2019-05-06T06:06:52.119Z,9.13
2019-05-06T06:09:22.815Z,8.60
2019-05-06T06:11:57.073Z,8.90
2019-05-06T06:14:56.170Z,8.83
2019-05-06T06:17:53.155Z,10.03
2019-05-06T06:20:39.848Z,8.33
2019-05-06T06:23:24.476Z,9.23
2019-05-06T06:25:53.608Z,9.70
2019-05-06T06:28:22.816Z,9.17
2019-05-06T06:31:05.598Z,8.87
2019-05-06T06:33:34.763Z,8.90
2019-05-06T06:36:12.288Z,8.43
2019-05-06T06:39:12.580Z,8.83
2019-05-06T06:41:42.410Z,9.40
2019-05-06T06:44:23.566Z,8.30
2019-05-06T06:46:52.698Z,8.70
2019-05-06T06:49:22.276Z,8.10
2019-05-06T06:51:53.192Z,9.00
2019-05-06T06:54:22.936Z,9.13
2019-05-06T06:57:16.876Z,9.23
2019-05-06T06:59:53.443Z,8.67
2019-05-06T07:02:43.218Z,8.60
2019-05-06T07:05:25.478Z,7.30
2019-05-06T07:07:52.896Z,8.17
2019-05-06T07:11:14.178Z,8.80
2019-05-06T07:14:07.042Z,8.03
2019-05-06T07:16:36.102Z,8.43
2019-05-06T07:19:09.351Z,9.60
2019-05-06T07:21:44.478Z,8.90
2019-05-06T07:24:49.897Z,9.43
2019-05-06T07:27:59.346Z,10.37
2019-05-06T07:33:52.252Z,9.80
2019-05-06T07:37:36.521Z,9.73
2019-05-06T07:40:06.894Z,9.60
2019-05-06T07:42:44.754Z,9.77
2019-05-06T07:46:30.352Z,10.30
2019-05-06T07:49:12.626Z,10.60
2019-05-06T07:52:02.733Z,10.53
2019-05-06T07:55:26.057Z,9.57
2019-05-06T07:58:32.336Z,9.90
2019-05-06T08:01:02.713Z,10.17
2019-05-06T08:03:54.986Z,9.03
2019-05-06T08:06:32.068Z,9.67
2019-05-06T08:10:02.095Z,8.90
2019-05-06T08:12:29.523Z,8.63
2019-05-06T08:15:13.290Z,8.33
2019-05-06T08:18:26.225Z,8.57
2019-05-06T08:21:19.034Z,8.67
2019-05-06T08:23:52.307Z,8.40
2019-05-06T08:26:22.423Z,8.13
2019-05-06T08:28:52.605Z,8.90
2019-05-06T08:31:22.843Z,10.30
2019-05-06T08:33:52.610Z,8.03
2019-05-06T08:36:46.962Z,9.20
2019-05-06T08:39:16.076Z,9.30
2019-05-06T08:41:45.129Z,10.03
2019-05-06T08:44:14.281Z,9.47
2019-05-06T08:46:43.712Z,8.67
2019-05-06T08:49:13.050Z,9.57
2019-05-06T08:51:53.081Z,9.53
2019-05-06T08:54:39.590Z,8.63
2019-05-06T08:57:08.735Z,8.20
2019-05-06T08:59:37.909Z,7.67
2019-05-06T09:02:07.465Z,8.07
2019-05-06T09:04:36.517Z,7.50
2019-05-06T09:07:05.532Z,7.53
2019-05-06T09:09:34.626Z,7.53
2019-05-06T09:12:03.921Z,7.80
2019-05-06T09:14:33.054Z,8.37
2019-05-06T09:17:02.817Z,7.17
2019-05-06T09:19:33.178Z,6.60
2019-05-06T09:22:02.666Z,6.50
2019-05-06T09:24:32.242Z,7.43
2019-05-06T09:27:12.337Z,7.93
2019-05-06T09:29:47.686Z,8.00
2019-05-06T09:32:35.702Z,7.77
2019-05-06T09:35:02.961Z,7.90
2019-05-06T09:37:32.604Z,7.67
2019-05-06T09:40:02.805Z,7.50
2019-05-06T09:42:32.245Z,7.20
2019-05-06T09:45:02.280Z,6.40
2019-05-06T09:47:52.774Z,6.90
2019-05-06T09:50:45.381Z,6.23
2019-05-06T09:53:17.616Z,6.80
2019-05-06T09:56:04.239Z,6.53
2019-05-06T09:58:34.286Z,6.10
2019-05-06T10:01:04.566Z,6.03
2019-05-06T10:03:33.704Z,6.20
2019-05-06T10:06:02.901Z,6.07
2019-05-06T10:08:32.435Z,5.90
2019-05-06T10:11:03.211Z,6.20
2019-05-06T10:13:32.847Z,6.10
2019-05-06T10:16:02.964Z,6.50
2019-05-06T10:18:32.287Z,7.00
2019-05-06T10:21:01.346Z,6.67
2019-05-06T10:23:32.630Z,6.33
2019-05-06T10:26:04.660Z,8.13
2019-05-06T10:28:40.327Z,7.37
2019-05-06T10:31:12.771Z,6.43
2019-05-06T10:33:59.467Z,6.93
2019-05-06T10:36:38.261Z,6.90
2019-05-06T10:39:07.924Z,7.00
2019-05-06T10:41:39.374Z,7.07
2019-05-06T10:44:22.562Z,7.43
2019-05-06T10:46:52.683Z,7.67
2019-05-06T10:49:22.606Z,7.90
2019-05-06T10:52:12.732Z,8.50
2019-05-06T10:54:42.171Z,8.50
2019-05-06T10:57:22.072Z,8.00
2019-05-06T10:59:51.213Z,9.20
2019-05-06T11:02:57.713Z,8.47
2019-05-06T11:05:26.877Z,9.13
2019-05-06T11:07:55.995Z,9.13
2019-05-06T11:10:30.047Z,8.80
2019-05-06T11:12:55.917Z,9.77
2019-05-06T11:15:25.013Z,9.40
2019-05-06T11:17:54.185Z,9.20
2019-05-06T11:20:24.111Z,10.00
2019-05-06T11:22:53.357Z,10.33
2019-05-06T11:25:23.025Z,10.50
2019-05-06T11:27:52.762Z,10.47
2019-05-06T11:30:42.509Z,10.33
2019-05-06T11:33:29.367Z,10.47
2019-05-06T11:36:05.461Z,10.87
2019-05-06T11:38:34.552Z,11.00
2019-05-06T11:41:03.645Z,10.97
2019-05-06T11:43:32.796Z,11.57
2019-05-06T11:46:01.866Z,13.07
2019-05-06T11:48:32.836Z,12.83
2019-05-06T11:51:03.592Z,11.97
2019-05-06T11:53:35.461Z,11.63
2019-05-06T11:56:04.833Z,12.60
2019-05-06T11:58:45.356Z,13.70
2019-05-06T12:01:22.131Z,12.67
2019-05-06T12:03:52.160Z,13.23
2019-05-06T12:06:22.645Z,12.80
2019-05-06T12:08:52.562Z,12.80
2019-05-06T12:11:23.711Z,11.63
2019-05-06T12:13:53.394Z,11.40
2019-05-06T12:16:26.218Z,11.50
2019-05-06T12:18:53.386Z,12.37
2019-05-06T12:21:23.132Z,11.00
2019-05-06T12:23:53.872Z,10.80
2019-05-06T12:26:23.229Z,11.27
2019-05-06T12:28:53.202Z,10.40
2019-05-06T12:31:23.336Z,8.60
2019-05-06T12:33:53.486Z,8.10
2019-05-06T12:36:23.573Z,8.40
2019-05-06T12:39:15.917Z,8.13
2019-05-06T12:42:05.411Z,7.97
2019-05-06T12:44:35.824Z,7.40
2019-05-06T12:47:23.887Z,7.40
2019-05-06T12:49:53.502Z,8.23
2019-05-06T12:52:23.255Z,7.10
2019-05-06T12:54:54.286Z,6.90
2019-05-06T12:57:23.561Z,6.83
2019-05-06T12:59:53.161Z,7.23
2019-05-06T13:02:23.787Z,6.50
2019-05-06T13:04:59.803Z,5.93
2019-05-06T13:07:39.219Z,6.73
2019-05-06T13:10:08.345Z,6.70
2019-05-06T13:12:39.218Z,7.20
2019-05-06T13:15:08.429Z,5.97
2019-05-06T13:17:37.581Z,6.83
2019-05-06T13:20:06.916Z,7.40
2019-05-06T13:23:15.900Z,6.43
2019-05-06T13:25:45.150Z,7.13
2019-05-06T13:28:13.967Z,5.93
2019-05-06T13:30:43.471Z,6.23
2019-05-06T13:33:37.422Z,6.90
2019-05-06T13:36:06.502Z,7.13
2019-05-06T13:38:35.617Z,8.03
2019-05-06T13:41:04.691Z,8.07
2019-05-06T13:43:38.546Z,8.00
2019-05-06T13:46:28.374Z,7.73
2019-05-06T13:49:15.406Z,7.50
2019-05-06T13:51:52.327Z,7.90
2019-05-06T13:54:22.315Z,8.60
2019-05-06T13:56:52.226Z,9.30
2019-05-06T13:59:21.366Z,9.13
2019-05-06T14:02:16.084Z,8.90
2019-05-06T14:04:44.403Z,9.23
2019-05-06T14:07:13.869Z,9.83
2019-05-06T14:09:43.808Z,10.00
2019-05-06T14:12:13.017Z,9.87
2019-05-06T14:14:43.144Z,10.03
2019-05-06T14:17:12.976Z,9.13
2019-05-06T14:19:42.977Z,9.07
2019-05-06T14:22:12.684Z,9.37
2019-05-06T14:24:46.022Z,8.70
2019-05-06T14:27:18.372Z,9.33
2019-05-06T14:29:55.900Z,9.10
2019-05-06T14:32:24.926Z,9.63
2019-05-06T14:34:54.060Z,9.67
2019-05-06T14:37:23.111Z,9.13
2019-05-06T14:39:59.156Z,8.73
2019-05-06T14:42:24.835Z,9.57
2019-05-06T14:44:54.020Z,9.43
2019-05-06T14:47:25.385Z,8.63
2019-05-06T14:49:54.820Z,8.93
2019-05-06T14:52:23.882Z,8.43
2019-05-06T14:54:59.764Z,9.00
2019-05-06T14:57:28.967Z,9.63
2019-05-06T14:59:58.211Z,8.37
2019-05-06T15:02:28.393Z,9.17
2019-05-06T15:04:57.507Z,8.00
2019-05-06T15:07:26.556Z,9.27
2019-05-06T15:10:14.997Z,9.90
2019-05-06T15:12:26.682Z,8.73
2019-05-06T15:14:55.779Z,9.03
2019-05-06T15:17:24.853Z,9.70
2019-05-06T15:19:53.987Z,8.77
2019-05-06T15:22:23.118Z,8.90
2019-05-06T15:24:53.606Z,8.47
2019-05-06T15:27:23.133Z,8.50
2019-05-06T15:29:55.146Z,8.80
2019-05-06T15:32:28.551Z,9.50
2019-05-06T15:35:12.855Z,8.40
2019-05-06T15:37:47.342Z,9.37
2019-05-06T15:40:30.746Z,9.93
2019-05-06T15:42:47.277Z,8.93
2019-05-06T15:45:16.376Z,9.27
2019-05-06T15:47:45.636Z,9.47
2019-05-06T15:50:14.825Z,9.93
2019-05-06T15:52:46.116Z,10.17
2019-05-06T15:55:15.196Z,11.27
2019-05-06T15:57:44.280Z,12.27
2019-05-06T16:00:16.664Z,11.73
2019-05-06T16:02:45.759Z,12.37
2019-05-06T16:05:19.984Z,13.07
2019-05-06T16:07:45.682Z,12.87
2019-05-06T16:10:15.032Z,13.37
2019-05-06T16:12:47.735Z,14.30
2019-05-06T16:15:16.858Z,14.27
2019-05-06T16:17:46.198Z,15.13
2019-05-06T16:20:15.267Z,15.13
2019-05-06T16:22:46.128Z,14.57
2019-05-06T16:25:15.686Z,14.93
2019-05-06T16:27:46.487Z,14.37
2019-05-06T16:30:18.139Z,14.47
2019-05-06T16:32:47.190Z,13.93
2019-05-06T16:35:16.309Z,13.17
2019-05-06T16:37:45.435Z,12.90
2019-05-06T16:40:14.509Z,14.40
2019-05-06T16:42:46.061Z,12.03
2019-05-06T16:45:18.554Z,12.83
2019-05-06T16:47:46.303Z,12.87
2019-05-06T16:50:15.418Z,12.23
2019-05-06T16:52:45.619Z,12.87
2019-05-06T16:55:18.644Z,11.00
2019-05-06T16:58:02.452Z,9.73
2019-05-06T17:00:33.191Z,9.33
2019-05-06T17:03:23.451Z,9.93
2019-05-06T17:06:13.760Z,8.30
2019-05-06T17:08:42.439Z,8.43
2019-05-06T17:11:26.136Z,9.13
2019-05-06T17:13:44.536Z,9.33
2019-05-06T17:16:13.942Z,8.87
2019-05-06T17:18:43.208Z,9.33
2019-05-06T17:21:13.094Z,7.37
2019-05-06T17:23:42.625Z,8.37
2019-05-06T17:26:12.794Z,8.30
2019-05-06T17:28:52.064Z,7.53
2019-05-06T17:31:49.416Z,8.87
2019-05-06T17:34:23.068Z,8.57
2019-05-06T17:36:54.637Z,9.00
2019-05-06T17:39:32.719Z,9.90
2019-05-06T17:42:01.311Z,7.57
2019-05-06T17:44:32.655Z,7.30
2019-05-06T17:47:12.264Z,6.37
2019-05-06T17:49:42.193Z,7.13
2019-05-06T17:52:15.407Z,6.73
2019-05-06T17:54:44.460Z,6.80
2019-05-06T17:57:13.570Z,7.33
2019-05-06T17:59:42.699Z,6.80
2019-05-06T18:02:19.080Z,6.97
2019-05-06T18:04:47.590Z,7.27
2019-05-06T18:07:16.634Z,7.10
2019-05-06T18:09:45.774Z,7.87
2019-05-06T18:12:14.861Z,7.30
2019-05-06T18:14:44.025Z,7.53
2019-05-06T18:17:13.126Z,6.93
2019-05-06T18:19:43.296Z,7.20
2019-05-06T18:22:13.173Z,6.70
2019-05-06T18:24:42.405Z,7.83
2019-05-06T18:27:13.074Z,6.93
2019-05-06T18:29:42.553Z,8.57
2019-05-06T18:32:12.681Z,7.87
2019-05-06T18:34:41.950Z,8.50
2019-05-06T18:37:12.774Z,7.80
2019-05-06T18:39:42.598Z,7.97
2019-05-06T18:42:19.220Z,8.93
2019-05-06T18:44:42.550Z,9.23
2019-05-06T18:47:12.318Z,8.43
2019-05-06T18:49:42.658Z,8.80
2019-05-06T18:52:13.276Z,8.60
2019-05-06T18:54:43.015Z,9.27
2019-05-06T18:57:12.967Z,9.97
2019-05-06T18:59:42.695Z,9.57
2019-05-06T19:02:13.138Z,10.37
2019-05-06T19:04:52.111Z,10.53
2019-05-06T19:07:22.043Z,10.50
2019-05-06T19:10:00.214Z,10.17
2019-05-06T19:12:39.187Z,9.97
2019-05-06T19:15:03.393Z,9.70
2019-05-06T19:17:33.573Z,11.33
2019-05-06T19:20:02.923Z,11.57
2019-05-06T19:22:32.872Z,10.60
2019-05-06T19:25:02.785Z,11.20
2019-05-06T19:27:33.264Z,11.70
2019-05-06T19:30:02.801Z,13.80
2019-05-06T19:32:34.535Z,11.33
2019-05-06T19:35:02.994Z,11.57
2019-05-06T19:37:32.953Z,10.20
2019-05-06T19:41:17.299Z,10.93
2019-05-06T19:43:27.149Z,11.23
2019-05-06T19:45:56.294Z,11.13
2019-05-06T19:48:25.531Z,11.73
2019-05-06T19:50:54.646Z,11.63
2019-05-06T19:53:39.394Z,11.60
2019-05-06T19:56:00.057Z,12.30
2019-05-06T19:58:29.133Z,12.57
2019-05-06T20:00:58.278Z,12.60
2019-05-06T20:03:27.427Z,12.57
2019-05-06T20:06:33.592Z,12.97
2019-05-06T20:09:22.185Z,11.43
2019-05-06T20:11:56.404Z,12.63
2019-05-06T20:14:25.522Z,12.77
2019-05-06T20:16:54.639Z,13.57
2019-05-06T20:19:30.757Z,12.77
2019-05-06T20:21:54.674Z,14.30
2019-05-06T20:24:23.736Z,13.23
2019-05-06T20:26:52.883Z,13.13
2019-05-06T20:29:22.539Z,13.70
2019-05-06T20:31:53.507Z,13.57
2019-05-06T20:34:22.592Z,13.50
2019-05-06T20:36:53.555Z,14.37
2019-05-06T20:39:23.138Z,14.43
2019-05-06T20:41:52.243Z,13.27
2019-05-06T20:44:23.081Z,13.73
2019-05-06T20:46:52.816Z,13.27
2019-05-06T20:49:21.962Z,13.30
2019-05-06T20:51:52.178Z,13.37
2019-05-06T20:54:23.569Z,13.43
2019-05-06T20:56:54.936Z,13.93
2019-05-06T20:59:24.017Z,13.57
2019-05-06T21:01:55.311Z,14.57
2019-05-06T21:04:23.974Z,13.50
2019-05-06T21:06:53.015Z,13.73
2019-05-06T21:09:23.294Z,13.20
2019-05-06T21:11:52.848Z,14.13
2019-05-06T21:14:22.708Z,12.73
2019-05-06T21:16:52.144Z,12.80
2019-05-06T21:19:22.299Z,13.63
2019-05-06T21:21:52.713Z,13.13
2019-05-06T21:24:22.658Z,13.93
2019-05-06T21:26:53.129Z,13.93
2019-05-06T21:29:23.198Z,13.50
2019-05-06T21:31:53.126Z,13.60
2019-05-06T21:34:22.488Z,14.77
2019-05-06T21:36:53.235Z,14.57
2019-05-06T21:39:22.583Z,14.50
2019-05-06T21:41:52.247Z,14.03
2019-05-06T21:44:22.879Z,14.13
2019-05-06T21:46:54.038Z,14.07
2019-05-06T21:49:23.179Z,15.53
2019-05-06T21:51:52.233Z,14.17
2019-05-06T21:54:23.155Z,14.37
2019-05-06T21:56:53.229Z,15.13
2019-05-06T21:59:22.371Z,15.80
2019-05-06T22:01:52.071Z,15.87
2019-05-06T22:04:23.203Z,16.07
2019-05-06T22:06:52.523Z,15.00
2019-05-06T22:09:22.607Z,15.23
2019-05-06T22:11:52.986Z,14.20
2019-05-06T22:14:23.013Z,15.33
2019-05-06T22:16:52.199Z,14.13
2019-05-06T22:19:21.255Z,14.73
2019-05-06T22:22:03.378Z,13.90
2019-05-06T22:24:57.313Z,13.63
2019-05-06T22:27:22.279Z,13.87
2019-05-06T22:29:52.255Z,15.00
2019-05-06T22:32:23.163Z,14.20
2019-05-06T22:34:52.347Z,14.20
2019-05-06T22:37:22.117Z,14.70
2019-05-06T22:39:52.715Z,14.63
2019-05-06T22:42:22.647Z,15.27
2019-05-06T22:44:52.840Z,14.87
2019-05-06T22:47:23.096Z,14.30
2019-05-06T22:49:54.255Z,14.90
2019-05-06T22:52:23.201Z,14.33
2019-05-06T22:54:52.774Z,13.53
2019-05-06T22:57:23.487Z,14.30
2019-05-06T22:59:52.761Z,13.77
2019-05-06T23:02:36.235Z,13.57
2019-05-06T23:05:05.686Z,14.63
2019-05-06T23:07:34.769Z,13.90
2019-05-06T23:10:03.881Z,13.47
2019-05-06T23:12:32.946Z,15.43
2019-05-06T23:15:02.636Z,13.00
2019-05-06T23:17:34.167Z,14.50
2019-05-06T23:20:02.733Z,13.47
2019-05-06T23:22:32.769Z,14.33
2019-05-06T23:25:02.321Z,13.60
2019-05-06T23:27:31.379Z,14.10
2019-05-06T23:30:00.429Z,14.00
2019-05-06T23:32:29.599Z,14.77
2019-05-06T23:34:58.661Z,13.87
2019-05-06T23:37:26.244Z,14.83
2019-05-06T23:40:42.852Z,16.43
2019-05-06T23:43:47.312Z,14.80
2019-05-06T23:46:52.768Z,16.40
2019-05-06T23:49:57.680Z,15.80
2019-05-06T23:53:03.096Z,15.73
2019-05-06T23:56:08.000Z,17.30
2019-05-06T23:58:37.211Z,16.73
